sensor_id;sensor_type;location;lat;lon;timestamp;P1;durP1;ratioP1;P2;durP2;ratioP2
55670;SDS011;41551;47.500;8.408;2022-08-03T14:10:08;5.47;;;1.50;;
55670;SDS011;41551;47.500;8.408;2022-08-03T14:12:35;1.42;;;1.17;;
55670;SDS011;41551;47.500;8.408;2022-08-03T14:15:02;1.50;;;1.40;;
55670;SDS011;41551;47.500;8.408;2022-08-03T14:17:34;1.15;;;1.05;;
55670;SDS011;41551;47.500;8.408;2022-08-03T14:20:00;4.88;;;1.20;;
55670;SDS011;41551;47.500;8.408;2022-08-03T14:22:29;1.67;;;1.20;;
55670;SDS011;41551;47.500;8.408;2022-08-03T14:24:55;1.88;;;1.15;;
55670;SDS011;41551;47.500;8.408;2022-08-03T14:27:24;1.13;;;0.90;;
55670;SDS011;41551;47.500;8.408;2022-08-03T14:29:50;1.30;;;1.20;;
55670;SDS011;41551;47.500;8.408;2022-08-03T14:32:17;2.20;;;1.40;;
55670;SDS011;41551;47.500;8.408;2022-08-03T14:34:44;2.38;;;1.15;;
55670;SDS011;41551;47.500;8.408;2022-08-03T14:37:11;1.52;;;1.35;;
55670;SDS011;41551;47.500;8.408;2022-08-03T14:39:37;5.03;;;1.30;;
55670;SDS011;41551;47.500;8.408;2022-08-03T14:42:04;1.20;;;1.10;;
55670;SDS011;41551;47.500;8.408;2022-08-03T14:47:00;1.45;;;1.10;;
55670;SDS011;41551;47.500;8.408;2022-08-03T14:49:27;1.52;;;1.17;;
55670;SDS011;41551;47.500;8.408;2022-08-03T14:51:54;1.50;;;1.30;;
55670;SDS011;41551;47.500;8.408;2022-08-03T14:54:21;1.75;;;1.10;;
55670;SDS011;41551;47.500;8.408;2022-08-03T14:56:48;2.88;;;1.92;;
55670;SDS011;41551;47.500;8.408;2022-08-03T14:59:14;1.35;;;1.25;;
55670;SDS011;41551;47.500;8.408;2022-08-03T15:01:42;1.98;;;1.35;;
55670;SDS011;41551;47.500;8.408;2022-08-03T15:04:09;2.05;;;1.20;;
55670;SDS011;41551;47.500;8.408;2022-08-03T15:06:36;1.20;;;1.10;;
55670;SDS011;41551;47.500;8.408;2022-08-03T15:09:02;1.25;;;1.15;;
55670;SDS011;41551;47.500;8.408;2022-08-03T15:11:29;1.30;;;1.13;;
55670;SDS011;41551;47.500;8.408;2022-08-03T15:13:56;1.50;;;1.20;;
55670;SDS011;41551;47.500;8.408;2022-08-03T15:16:23;2.40;;;1.25;;
55670;SDS011;41551;47.500;8.408;2022-08-03T15:18:51;1.52;;;1.20;;
55670;SDS011;41551;47.500;8.408;2022-08-03T15:21:18;1.23;;;1.13;;
55670;SDS011;41551;47.500;8.408;2022-08-03T15:23:45;1.95;;;1.20;;
55670;SDS011;41551;47.500;8.408;2022-08-03T15:26:11;1.33;;;1.10;;
55670;SDS011;41551;47.500;8.408;2022-08-03T15:28:38;1.95;;;1.25;;
55670;SDS011;41551;47.500;8.408;2022-08-03T15:31:05;1.60;;;1.05;;
55670;SDS011;41551;47.500;8.408;2022-08-03T15:33:31;1.33;;;1.23;;
55670;SDS011;41551;47.500;8.408;2022-08-03T15:36:00;1.52;;;1.27;;
55670;SDS011;41551;47.500;8.408;2022-08-03T15:38:26;1.35;;;1.20;;
55670;SDS011;41551;47.500;8.408;2022-08-03T15:40:53;1.30;;;1.20;;
55670;SDS011;41551;47.500;8.408;2022-08-03T15:43:20;1.52;;;1.40;;
55670;SDS011;41551;47.500;8.408;2022-08-03T15:45:47;2.92;;;1.40;;
55670;SDS011;41551;47.500;8.408;2022-08-03T15:48:14;3.28;;;1.33;;
55670;SDS011;41551;47.500;8.408;2022-08-03T15:50:41;1.50;;;1.30;;
55670;SDS011;41551;47.500;8.408;2022-08-03T15:53:09;2.25;;;1.10;;
55670;SDS011;41551;47.500;8.408;2022-08-03T15:55:36;1.40;;;1.10;;
55670;SDS011;41551;47.500;8.408;2022-08-03T15:58:02;2.45;;;1.20;;
55670;SDS011;41551;47.500;8.408;2022-08-03T16:00:29;1.33;;;1.23;;
55670;SDS011;41551;47.500;8.408;2022-08-03T16:02:56;1.95;;;1.30;;
55670;SDS011;41551;47.500;8.408;2022-08-03T16:05:23;1.48;;;1.10;;
55670;SDS011;41551;47.500;8.408;2022-08-03T16:07:50;1.60;;;0.90;;
55670;SDS011;41551;47.500;8.408;2022-08-03T16:10:19;2.13;;;1.30;;
55670;SDS011;41551;47.500;8.408;2022-08-03T16:12:46;1.20;;;1.10;;
55670;SDS011;41551;47.500;8.408;2022-08-03T16:15:14;1.52;;;1.30;;
55670;SDS011;41551;47.500;8.408;2022-08-03T16:17:40;4.50;;;1.20;;
55670;SDS011;41551;47.500;8.408;2022-08-03T16:20:08;1.60;;;1.10;;
55670;SDS011;41551;47.500;8.408;2022-08-03T16:22:39;1.60;;;1.25;;
55670;SDS011;41551;47.500;8.408;2022-08-03T16:25:07;1.83;;;1.10;;
55670;SDS011;41551;47.500;8.408;2022-08-03T16:27:35;1.25;;;0.93;;
55670;SDS011;41551;47.500;8.408;2022-08-03T16:30:02;5.10;;;1.40;;
55670;SDS011;41551;47.500;8.408;2022-08-03T16:32:31;2.30;;;1.17;;
55670;SDS011;41551;47.500;8.408;2022-08-03T16:34:58;1.30;;;1.20;;
55670;SDS011;41551;47.500;8.408;2022-08-03T16:37:25;7.00;;;1.30;;
55670;SDS011;41551;47.500;8.408;2022-08-03T16:39:52;1.73;;;1.33;;
55670;SDS011;41551;47.500;8.408;2022-08-03T16:42:19;1.60;;;1.20;;
55670;SDS011;41551;47.500;8.408;2022-08-03T16:44:47;1.40;;;1.30;;
55670;SDS011;41551;47.500;8.408;2022-08-03T16:47:14;2.22;;;1.20;;
55670;SDS011;41551;47.500;8.408;2022-08-03T16:49:41;3.95;;;1.85;;
55670;SDS011;41551;47.500;8.408;2022-08-03T16:52:07;2.45;;;1.10;;
55670;SDS011;41551;47.500;8.408;2022-08-03T16:54:34;2.85;;;1.20;;
55670;SDS011;41551;47.500;8.408;2022-08-03T16:57:01;1.58;;;1.17;;
55670;SDS011;41551;47.500;8.408;2022-08-03T16:59:28;2.30;;;1.30;;
55670;SDS011;41551;47.500;8.408;2022-08-03T17:01:56;2.47;;;1.70;;
55670;SDS011;41551;47.500;8.408;2022-08-03T17:04:23;1.40;;;1.30;;
55670;SDS011;41551;47.500;8.408;2022-08-03T17:06:50;1.90;;;1.80;;
55670;SDS011;41551;47.500;8.408;2022-08-03T17:09:17;1.60;;;1.50;;
55670;SDS011;41551;47.500;8.408;2022-08-03T17:11:44;1.38;;;1.27;;
55670;SDS011;41551;47.500;8.408;2022-08-03T17:14:14;1.25;;;1.10;;
55670;SDS011;41551;47.500;8.408;2022-08-03T17:16:44;1.35;;;1.25;;
55670;SDS011;41551;47.500;8.408;2022-08-03T17:19:14;1.65;;;1.50;;
55670;SDS011;41551;47.500;8.408;2022-08-03T17:21:51;2.00;;;1.27;;
55670;SDS011;41551;47.500;8.408;2022-08-03T17:24:23;2.47;;;1.35;;
55670;SDS011;41551;47.500;8.408;2022-08-03T17:26:56;1.35;;;1.25;;
55670;SDS011;41551;47.500;8.408;2022-08-03T17:29:26;1.73;;;1.30;;
55670;SDS011;41551;47.500;8.408;2022-08-03T17:31:54;3.17;;;1.40;;
55670;SDS011;41551;47.500;8.408;2022-08-03T17:34:22;1.40;;;1.30;;
55670;SDS011;41551;47.500;8.408;2022-08-03T17:36:49;1.48;;;1.30;;
55670;SDS011;41551;47.500;8.408;2022-08-03T17:39:16;1.73;;;1.30;;
55670;SDS011;41551;47.500;8.408;2022-08-03T17:41:43;1.88;;;1.27;;
55670;SDS011;41551;47.500;8.408;2022-08-03T17:44:10;1.80;;;1.17;;
55670;SDS011;41551;47.500;8.408;2022-08-03T17:46:37;1.63;;;1.40;;
55670;SDS011;41551;47.500;8.408;2022-08-03T17:49:04;1.50;;;1.25;;
55670;SDS011;41551;47.500;8.408;2022-08-03T17:51:33;1.38;;;1.27;;
55670;SDS011;41551;47.500;8.408;2022-08-03T17:54:07;1.50;;;1.40;;
55670;SDS011;41551;47.500;8.408;2022-08-03T17:56:39;2.60;;;1.40;;
55670;SDS011;41551;47.500;8.408;2022-08-03T17:59:15;2.22;;;1.20;;
55670;SDS011;41551;47.500;8.408;2022-08-03T18:01:48;1.40;;;1.30;;
55670;SDS011;41551;47.500;8.408;2022-08-03T18:04:41;1.60;;;1.30;;
55670;SDS011;41551;47.500;8.408;2022-08-03T18:07:18;2.35;;;1.30;;
55670;SDS011;41551;47.500;8.408;2022-08-03T18:09:47;274.75;;;255.00;;
55670;SDS011;41551;47.500;8.408;2022-08-03T18:12:17;627.20;;;569.60;;
55670;SDS011;41551;47.500;8.408;2022-08-03T18:14:52;881.20;;;792.05;;
55670;SDS011;41551;47.500;8.408;2022-08-03T18:17:26;1489.68;;;998.22;;
55670;SDS011;41551;47.500;8.408;2022-08-03T18:19:55;658.53;;;601.65;;
55670;SDS011;41551;47.500;8.408;2022-08-03T18:22:23;24.90;;;22.95;;
55670;SDS011;41551;47.500;8.408;2022-08-03T18:24:51;5.75;;;3.70;;
55670;SDS011;41551;47.500;8.408;2022-08-03T18:27:18;4.65;;;4.25;;
55670;SDS011;41551;47.500;8.408;2022-08-03T18:29:46;3.00;;;2.15;;
55670;SDS011;41551;47.500;8.408;2022-08-03T18:32:14;1.70;;;1.60;;
55670;SDS011;41551;47.500;8.408;2022-08-03T18:34:42;3.58;;;1.40;;
55670;SDS011;41551;47.500;8.408;2022-08-03T18:37:10;1.55;;;1.45;;
55670;SDS011;41551;47.500;8.408;2022-08-03T18:39:40;2.13;;;1.30;;
55670;SDS011;41551;47.500;8.408;2022-08-03T18:42:07;1.20;;;1.10;;
55670;SDS011;41551;47.500;8.408;2022-08-03T18:44:34;1.67;;;1.25;;
55670;SDS011;41551;47.500;8.408;2022-08-03T18:47:08;2.40;;;1.15;;
55670;SDS011;41551;47.500;8.408;2022-08-03T18:49:46;1.65;;;1.25;;
55670;SDS011;41551;47.500;8.408;2022-08-03T18:52:30;3.77;;;1.40;;
55670;SDS011;41551;47.500;8.408;2022-08-03T18:55:08;2.05;;;1.25;;
55670;SDS011;41551;47.500;8.408;2022-08-03T18:57:42;1.63;;;1.17;;
55670;SDS011;41551;47.500;8.408;2022-08-03T19:00:10;2.40;;;1.30;;
55670;SDS011;41551;47.500;8.408;2022-08-03T19:02:41;2.00;;;1.70;;
55670;SDS011;41551;47.500;8.408;2022-08-03T19:05:14;1.63;;;1.23;;
55670;SDS011;41551;47.500;8.408;2022-08-03T19:07:44;1.77;;;1.30;;
55670;SDS011;41551;47.500;8.408;2022-08-03T19:10:25;1.15;;;1.10;;
55670;SDS011;41551;47.500;8.408;2022-08-03T19:12:56;1.63;;;1.48;;
55670;SDS011;41551;47.500;8.408;2022-08-03T19:15:25;1.85;;;1.60;;
55670;SDS011;41551;47.500;8.408;2022-08-03T19:17:54;5.57;;;3.55;;
55670;SDS011;41551;47.500;8.408;2022-08-03T19:20:22;4.00;;;2.22;;
55670;SDS011;41551;47.500;8.408;2022-08-03T19:22:50;7.00;;;6.18;;
55670;SDS011;41551;47.500;8.408;2022-08-03T19:25:19;25.58;;;19.30;;
55670;SDS011;41551;47.500;8.408;2022-08-03T19:27:47;2.70;;;2.40;;
55670;SDS011;41551;47.500;8.408;2022-08-03T19:30:15;6.35;;;5.78;;
55670;SDS011;41551;47.500;8.408;2022-08-03T19:32:56;3.15;;;2.05;;
55670;SDS011;41551;47.500;8.408;2022-08-03T19:35:24;3.78;;;2.85;;
55670;SDS011;41551;47.500;8.408;2022-08-03T19:37:51;3.00;;;2.60;;
55670;SDS011;41551;47.500;8.408;2022-08-03T19:40:18;3.55;;;2.78;;
55670;SDS011;41551;47.500;8.408;2022-08-03T19:42:45;5.32;;;1.90;;
55670;SDS011;41551;47.500;8.408;2022-08-03T19:45:20;8.25;;;1.75;;
55670;SDS011;41551;47.500;8.408;2022-08-03T19:47:55;3.42;;;1.88;;
55670;SDS011;41551;47.500;8.408;2022-08-03T19:50:28;2.15;;;1.58;;
55670;SDS011;41551;47.500;8.408;2022-08-03T19:52:57;3.60;;;1.50;;
55670;SDS011;41551;47.500;8.408;2022-08-03T19:55:27;2.28;;;1.70;;
55670;SDS011;41551;47.500;8.408;2022-08-03T19:57:57;5.00;;;1.45;;
55670;SDS011;41551;47.500;8.408;2022-08-03T20:00:25;2.95;;;1.95;;
55670;SDS011;41551;47.500;8.408;2022-08-03T20:02:54;2.08;;;1.80;;
55670;SDS011;41551;47.500;8.408;2022-08-03T20:05:22;5.25;;;1.60;;
55670;SDS011;41551;47.500;8.408;2022-08-03T20:07:49;2.67;;;1.67;;
55670;SDS011;41551;47.500;8.408;2022-08-03T20:10:16;4.38;;;1.90;;
55670;SDS011;41551;47.500;8.408;2022-08-03T20:12:43;1.90;;;1.63;;
55670;SDS011;41551;47.500;8.408;2022-08-03T20:15:12;3.50;;;2.00;;
55670;SDS011;41551;47.500;8.408;2022-08-03T20:17:39;3.67;;;2.30;;
55670;SDS011;41551;47.500;8.408;2022-08-03T20:20:06;2.35;;;1.50;;
55670;SDS011;41551;47.500;8.408;2022-08-03T20:22:35;3.55;;;1.70;;
55670;SDS011;41551;47.500;8.408;2022-08-03T20:25:04;3.30;;;1.80;;
55670;SDS011;41551;47.500;8.408;2022-08-03T20:27:34;4.90;;;2.03;;
55670;SDS011;41551;47.500;8.408;2022-08-03T20:30:08;5.07;;;2.20;;
55670;SDS011;41551;47.500;8.408;2022-08-03T20:32:37;2.60;;;1.83;;
55670;SDS011;41551;47.500;8.408;2022-08-03T20:35:05;2.60;;;2.15;;
55670;SDS011;41551;47.500;8.408;2022-08-03T20:37:33;4.57;;;2.00;;
55670;SDS011;41551;47.500;8.408;2022-08-03T20:40:00;6.85;;;2.13;;
55670;SDS011;41551;47.500;8.408;2022-08-03T20:42:27;4.57;;;1.88;;
55670;SDS011;41551;47.500;8.408;2022-08-03T20:44:54;2.67;;;2.00;;
55670;SDS011;41551;47.500;8.408;2022-08-03T20:47:21;2.78;;;1.90;;
55670;SDS011;41551;47.500;8.408;2022-08-03T20:49:50;3.28;;;2.20;;
55670;SDS011;41551;47.500;8.408;2022-08-03T20:52:17;2.00;;;1.80;;
55670;SDS011;41551;47.500;8.408;2022-08-03T20:54:44;3.63;;;1.55;;
55670;SDS011;41551;47.500;8.408;2022-08-03T20:57:12;2.70;;;1.98;;
55670;SDS011;41551;47.500;8.408;2022-08-03T20:59:39;3.85;;;2.15;;
55670;SDS011;41551;47.500;8.408;2022-08-03T21:02:07;3.40;;;1.95;;
55670;SDS011;41551;47.500;8.408;2022-08-03T21:04:34;4.03;;;1.70;;
55670;SDS011;41551;47.500;8.408;2022-08-03T21:07:02;2.75;;;2.05;;
55670;SDS011;41551;47.500;8.408;2022-08-03T21:09:34;3.47;;;1.85;;
55670;SDS011;41551;47.500;8.408;2022-08-03T21:12:10;4.53;;;2.08;;
55670;SDS011;41551;47.500;8.408;2022-08-03T21:14:42;3.42;;;2.03;;
55670;SDS011;41551;47.500;8.408;2022-08-03T21:17:11;6.07;;;1.80;;
55670;SDS011;41551;47.500;8.408;2022-08-03T21:19:39;4.25;;;2.00;;
55670;SDS011;41551;47.500;8.408;2022-08-03T21:22:08;3.58;;;2.47;;
55670;SDS011;41551;47.500;8.408;2022-08-03T21:24:38;3.60;;;1.85;;
55670;SDS011;41551;47.500;8.408;2022-08-03T21:27:07;3.47;;;2.17;;
55670;SDS011;41551;47.500;8.408;2022-08-03T21:29:35;2.85;;;2.00;;
55670;SDS011;41551;47.500;8.408;2022-08-03T21:32:03;2.80;;;2.15;;
55670;SDS011;41551;47.500;8.408;2022-08-03T21:34:31;3.83;;;2.08;;
55670;SDS011;41551;47.500;8.408;2022-08-03T21:37:00;2.28;;;1.92;;
55670;SDS011;41551;47.500;8.408;2022-08-03T21:39:28;3.85;;;1.98;;
55670;SDS011;41551;47.500;8.408;2022-08-03T21:41:55;2.38;;;1.63;;
55670;SDS011;41551;47.500;8.408;2022-08-03T21:44:22;2.95;;;2.00;;
55670;SDS011;41551;47.500;8.408;2022-08-03T21:46:49;2.20;;;2.00;;
55670;SDS011;41551;47.500;8.408;2022-08-03T21:49:18;5.03;;;1.92;;
55670;SDS011;41551;47.500;8.408;2022-08-03T21:51:46;2.90;;;2.20;;
55670;SDS011;41551;47.500;8.408;2022-08-03T21:54:14;8.82;;;2.28;;
55670;SDS011;41551;47.500;8.408;2022-08-03T21:56:43;3.42;;;2.00;;
55670;SDS011;41551;47.500;8.408;2022-08-03T21:59:14;3.42;;;2.25;;
55670;SDS011;41551;47.500;8.408;2022-08-03T22:01:44;4.03;;;2.05;;
55670;SDS011;41551;47.500;8.408;2022-08-03T22:04:12;4.20;;;2.10;;
55670;SDS011;41551;47.500;8.408;2022-08-03T22:06:41;2.45;;;2.00;;
55670;SDS011;41551;47.500;8.408;2022-08-03T22:09:09;3.65;;;2.10;;
55670;SDS011;41551;47.500;8.408;2022-08-03T22:11:36;2.75;;;1.90;;
55670;SDS011;41551;47.500;8.408;2022-08-03T22:14:05;3.80;;;1.95;;
55670;SDS011;41551;47.500;8.408;2022-08-03T22:16:31;3.08;;;2.10;;
55670;SDS011;41551;47.500;8.408;2022-08-03T22:18:58;5.38;;;2.25;;
55670;SDS011;41551;47.500;8.408;2022-08-03T22:21:26;2.50;;;1.95;;
55670;SDS011;41551;47.500;8.408;2022-08-03T22:23:54;2.90;;;2.08;;
55670;SDS011;41551;47.500;8.408;2022-08-03T22:26:25;4.30;;;2.33;;
55670;SDS011;41551;47.500;8.408;2022-08-03T22:28:53;3.53;;;2.00;;
55670;SDS011;41551;47.500;8.408;2022-08-03T22:31:22;4.28;;;2.30;;
55670;SDS011;41551;47.500;8.408;2022-08-03T22:33:49;3.17;;;1.90;;
55670;SDS011;41551;47.500;8.408;2022-08-03T22:36:18;2.85;;;2.08;;
55670;SDS011;41551;47.500;8.408;2022-08-03T22:38:49;2.47;;;1.98;;
55670;SDS011;41551;47.500;8.408;2022-08-03T22:41:17;3.05;;;2.03;;
55670;SDS011;41551;47.500;8.408;2022-08-03T22:43:44;3.15;;;2.25;;
55670;SDS011;41551;47.500;8.408;2022-08-03T22:46:11;3.03;;;2.38;;
55670;SDS011;41551;47.500;8.408;2022-08-03T22:48:42;2.38;;;1.98;;
55670;SDS011;41551;47.500;8.408;2022-08-03T22:51:11;2.08;;;1.88;;
55670;SDS011;41551;47.500;8.408;2022-08-03T22:53:40;4.25;;;2.35;;
55670;SDS011;41551;47.500;8.408;2022-08-03T22:56:07;3.45;;;2.17;;
55670;SDS011;41551;47.500;8.408;2022-08-03T22:58:34;4.28;;;2.30;;
55670;SDS011;41551;47.500;8.408;2022-08-03T23:01:02;3.28;;;2.08;;
55670;SDS011;41551;47.500;8.408;2022-08-03T23:03:32;2.38;;;2.08;;
55670;SDS011;41551;47.500;8.408;2022-08-03T23:06:02;3.35;;;2.10;;
55670;SDS011;41551;47.500;8.408;2022-08-03T23:08:30;2.65;;;1.95;;
55670;SDS011;41551;47.500;8.408;2022-08-03T23:10:59;2.55;;;2.22;;
55670;SDS011;41551;47.500;8.408;2022-08-03T23:13:32;4.38;;;2.20;;
55670;SDS011;41551;47.500;8.408;2022-08-03T23:16:00;3.33;;;2.20;;
55670;SDS011;41551;47.500;8.408;2022-08-03T23:18:33;4.45;;;2.03;;
55670;SDS011;41551;47.500;8.408;2022-08-03T23:21:03;2.95;;;2.30;;
55670;SDS011;41551;47.500;8.408;2022-08-03T23:23:33;2.83;;;2.25;;
55670;SDS011;41551;47.500;8.408;2022-08-03T23:26:02;5.53;;;2.00;;
55670;SDS011;41551;47.500;8.408;2022-08-03T23:28:30;2.45;;;2.25;;
55670;SDS011;41551;47.500;8.408;2022-08-03T23:30:59;3.50;;;2.65;;
55670;SDS011;41551;47.500;8.408;2022-08-03T23:33:27;3.75;;;2.17;;
55670;SDS011;41551;47.500;8.408;2022-08-03T23:35:55;2.58;;;2.25;;
55670;SDS011;41551;47.500;8.408;2022-08-03T23:38:33;4.13;;;2.17;;
55670;SDS011;41551;47.500;8.408;2022-08-03T23:41:02;3.22;;;2.50;;
55670;SDS011;41551;47.500;8.408;2022-08-03T23:43:30;3.50;;;2.38;;
55670;SDS011;41551;47.500;8.408;2022-08-03T23:45:58;3.03;;;2.25;;
55670;SDS011;41551;47.500;8.408;2022-08-03T23:48:28;3.63;;;2.08;;
55670;SDS011;41551;47.500;8.408;2022-08-03T23:50:56;3.85;;;2.40;;
55670;SDS011;41551;47.500;8.408;2022-08-03T23:53:25;4.15;;;2.13;;
55670;SDS011;41551;47.500;8.408;2022-08-03T23:56:06;2.60;;;2.35;;
55670;SDS011;41551;47.500;8.408;2022-08-03T23:58:45;4.10;;;2.50;;
